createdAt,value
2022-08-21T00:00:42.387Z,10.15
2022-08-21T00:03:13.605Z,8.05
2022-08-21T00:05:47.648Z,8.50
2022-08-21T00:08:15.810Z,7.93
2022-08-21T00:10:45.706Z,9.85
2022-08-21T00:13:18.745Z,6.78
2022-08-21T00:15:47.537Z,7.50
2022-08-21T00:18:16.172Z,7.40
2022-08-21T00:20:47.721Z,6.93
2022-08-21T00:23:16.504Z,7.22
2022-08-21T00:25:46.285Z,7.30
2022-08-21T00:28:15.440Z,7.18
2022-08-21T00:30:45.520Z,7.43
2022-08-21T00:33:15.129Z,7.07
2022-08-21T00:35:45.920Z,8.30
2022-08-21T00:38:14.251Z,7.15
2022-08-21T00:40:47.652Z,8.40
2022-08-21T00:43:19.761Z,7.72
2022-08-21T00:45:47.971Z,7.70
2022-08-21T00:48:16.147Z,8.13
2022-08-21T00:50:55.229Z,9.05
2022-08-21T00:53:25.561Z,7.97
2022-08-21T00:55:54.025Z,9.18
2022-08-21T00:58:26.174Z,9.85
2022-08-21T01:00:54.938Z,9.73
2022-08-21T01:03:26.407Z,9.20
2022-08-21T01:05:56.474Z,10.13
2022-08-21T01:08:25.627Z,9.10
2022-08-21T01:10:56.980Z,10.10
2022-08-21T01:13:26.340Z,10.00
2022-08-21T01:15:58.611Z,9.98
2022-08-21T01:18:26.864Z,10.50
2022-08-21T01:21:08.355Z,11.80
2022-08-21T01:23:38.745Z,10.18
2022-08-21T01:26:08.364Z,10.45
2022-08-21T01:28:44.789Z,11.93
2022-08-21T01:31:26.260Z,10.10
2022-08-21T01:33:56.464Z,8.45
2022-08-21T01:36:27.620Z,8.02
2022-08-21T01:38:55.636Z,7.95
2022-08-21T01:41:23.820Z,8.10
2022-08-21T01:43:52.061Z,8.05
2022-08-21T01:46:20.256Z,6.83
2022-08-21T01:48:48.165Z,6.50
2022-08-21T01:51:16.208Z,6.57
2022-08-21T01:53:45.421Z,5.63
2022-08-21T01:56:17.746Z,4.95
2022-08-21T01:58:48.843Z,5.45
2022-08-21T02:01:17.034Z,5.53
2022-08-21T02:03:44.972Z,5.25
2022-08-21T02:06:18.870Z,4.35
2022-08-21T02:08:49.163Z,4.95
2022-08-21T02:11:17.270Z,4.55
2022-08-21T02:13:45.147Z,4.22
2022-08-21T02:16:17.301Z,4.68
2022-08-21T02:18:48.102Z,4.35
2022-08-21T02:21:16.537Z,4.68
2022-08-21T02:23:44.756Z,4.15
2022-08-21T02:26:14.482Z,5.18
2022-08-21T02:28:43.264Z,5.03
2022-08-21T02:31:11.939Z,6.75
2022-08-21T02:33:39.994Z,5.03
2022-08-21T02:36:09.973Z,5.25
2022-08-21T02:38:42.524Z,4.82
2022-08-21T02:41:16.220Z,5.05
2022-08-21T02:43:44.663Z,4.63
2022-08-21T02:46:16.227Z,5.28
2022-08-21T02:48:44.211Z,4.88
2022-08-21T02:51:15.944Z,4.97
2022-08-21T02:53:44.643Z,4.65
2022-08-21T02:56:18.101Z,4.78
2022-08-21T02:58:51.893Z,4.00
2022-08-21T03:01:21.274Z,4.65
2022-08-21T03:03:51.767Z,4.78
2022-08-21T03:06:22.551Z,4.45
2022-08-21T03:08:51.845Z,4.78
2022-08-21T03:11:21.718Z,4.45
2022-08-21T03:13:49.535Z,4.53
2022-08-21T03:16:17.384Z,4.93
2022-08-21T03:18:45.214Z,4.00
2022-08-21T03:21:14.099Z,3.80
2022-08-21T03:23:42.947Z,3.50
2022-08-21T03:26:12.510Z,4.30
2022-08-21T03:28:41.957Z,3.80
2022-08-21T03:31:09.826Z,3.60
2022-08-21T03:33:37.719Z,3.78
2022-08-21T03:36:09.587Z,3.85
2022-08-21T03:38:39.727Z,4.40
2022-08-21T03:41:08.973Z,3.80
2022-08-21T03:43:37.331Z,4.03
2022-08-21T03:46:08.192Z,3.80
2022-08-21T03:48:39.243Z,3.80
2022-08-21T03:51:08.509Z,3.50
2022-08-21T03:53:37.324Z,3.50
2022-08-21T03:56:07.027Z,3.73
2022-08-21T03:58:35.471Z,3.65
2022-08-21T04:01:07.134Z,3.90
2022-08-21T04:03:38.071Z,4.03
2022-08-21T04:06:07.413Z,4.03
2022-08-21T04:08:35.828Z,3.67
2022-08-21T04:11:04.280Z,3.90
2022-08-21T04:13:32.199Z,3.87
2022-08-21T04:16:00.278Z,3.83
2022-08-21T04:18:29.832Z,3.60
2022-08-21T04:21:01.672Z,4.00
2022-08-21T04:23:30.641Z,3.53
2022-08-21T04:25:59.268Z,3.50
2022-08-21T04:28:30.440Z,3.95
2022-08-21T04:30:59.839Z,3.20
2022-08-21T04:33:30.166Z,3.20
2022-08-21T04:35:57.998Z,3.00
2022-08-21T04:38:25.870Z,3.25
2022-08-21T04:40:54.637Z,3.17
2022-08-21T04:43:24.333Z,3.00
2022-08-21T04:45:54.216Z,3.17
2022-08-21T04:48:25.102Z,3.00
2022-08-21T04:51:01.484Z,2.80
2022-08-21T04:53:39.033Z,3.10
2022-08-21T04:56:13.680Z,3.28
2022-08-21T04:58:43.452Z,3.08
2022-08-21T05:01:19.197Z,3.13
2022-08-21T05:03:51.220Z,3.20
2022-08-21T05:06:22.310Z,2.93
2022-08-21T05:08:57.138Z,3.00
2022-08-21T05:11:31.818Z,2.90
2022-08-21T05:14:00.334Z,2.93
2022-08-21T05:16:37.368Z,2.97
2022-08-21T05:19:06.603Z,3.00
2022-08-21T05:21:39.435Z,3.53
2022-08-21T05:24:07.592Z,3.70
2022-08-21T05:26:45.366Z,3.15
2022-08-21T05:29:16.393Z,3.30
2022-08-21T05:31:44.633Z,3.30
2022-08-21T05:34:12.831Z,3.35
2022-08-21T05:36:46.517Z,3.37
2022-08-21T05:39:14.806Z,3.67
2022-08-21T05:41:42.971Z,3.10
2022-08-21T05:44:11.377Z,2.97
2022-08-21T05:46:39.878Z,3.17
2022-08-21T05:49:07.715Z,2.60
2022-08-21T05:51:36.225Z,3.30
2022-08-21T05:54:05.770Z,3.53
2022-08-21T05:56:34.152Z,2.93
2022-08-21T05:59:01.964Z,3.07
2022-08-21T06:01:31.628Z,3.20
2022-08-21T06:03:59.666Z,2.83
2022-08-21T06:06:29.336Z,2.60
2022-08-21T06:08:57.201Z,2.70
2022-08-21T06:11:29.021Z,2.83
2022-08-21T06:13:57.543Z,3.33
2022-08-21T06:16:25.728Z,3.20
2022-08-21T06:18:53.811Z,5.07
2022-08-21T06:21:21.892Z,2.75
2022-08-21T06:23:49.756Z,3.00
2022-08-21T06:26:18.149Z,3.00
2022-08-21T06:28:47.620Z,2.75
2022-08-21T06:31:19.774Z,2.75
2022-08-21T06:33:48.406Z,3.05
2022-08-21T06:36:17.258Z,2.50
2022-08-21T06:38:50.931Z,2.83
2022-08-21T06:41:23.837Z,3.27
2022-08-21T06:43:54.120Z,3.50
2022-08-21T06:46:22.033Z,2.83
2022-08-21T06:48:50.439Z,3.10
2022-08-21T06:51:18.581Z,3.30
2022-08-21T06:53:46.854Z,3.15
2022-08-21T06:56:14.809Z,3.83
2022-08-21T06:58:42.632Z,3.33
2022-08-21T07:01:11.826Z,3.70
2022-08-21T07:03:42.078Z,3.88
2022-08-21T07:06:12.226Z,3.92
2022-08-21T07:08:40.769Z,3.55
2022-08-21T07:11:16.513Z,3.50
2022-08-21T07:13:44.452Z,4.05
2022-08-21T07:16:14.733Z,4.25
2022-08-21T07:18:42.753Z,3.47
2022-08-21T07:21:11.437Z,3.95
2022-08-21T07:23:43.944Z,3.75
2022-08-21T07:26:12.212Z,3.78
2022-08-21T07:28:40.501Z,3.60
2022-08-21T07:31:08.359Z,3.30
2022-08-21T07:33:38.336Z,3.42
2022-08-21T07:36:06.921Z,4.32
2022-08-21T07:38:34.793Z,3.60
2022-08-21T07:41:03.937Z,4.25
2022-08-21T07:43:31.923Z,3.20
2022-08-21T07:45:59.902Z,3.75
2022-08-21T07:48:27.808Z,3.70
2022-08-21T07:50:57.461Z,3.95
2022-08-21T07:53:25.276Z,3.45
2022-08-21T07:55:53.124Z,3.80
2022-08-21T07:58:20.965Z,3.35
2022-08-21T08:00:49.156Z,3.42
2022-08-21T08:03:20.561Z,3.20
2022-08-21T08:05:59.391Z,3.70
2022-08-21T08:08:28.572Z,4.53
2022-08-21T08:10:59.954Z,3.72
2022-08-21T08:13:28.035Z,3.38
2022-08-21T08:15:55.895Z,3.97
2022-08-21T08:18:24.025Z,3.78
2022-08-21T08:20:51.924Z,3.55
2022-08-21T08:23:21.096Z,3.88
2022-08-21T08:25:49.145Z,3.83
2022-08-21T08:28:17.921Z,3.38
2022-08-21T08:30:47.313Z,3.53
2022-08-21T08:33:16.560Z,3.40
2022-08-21T08:35:48.509Z,2.25
2022-08-21T08:38:20.773Z,2.20
2022-08-21T08:41:02.830Z,2.00
2022-08-21T08:43:33.718Z,2.25
2022-08-21T08:46:08.301Z,2.40
2022-08-21T08:48:53.261Z,2.00
2022-08-21T08:51:29.836Z,2.72
2022-08-21T08:54:04.685Z,2.00
2022-08-21T08:56:36.002Z,1.88
2022-08-21T08:59:15.256Z,1.80
2022-08-21T09:01:44.392Z,2.03
2022-08-21T09:04:14.486Z,1.65
2022-08-21T09:07:14.533Z,1.77
2022-08-21T09:10:05.235Z,1.50
2022-08-21T09:12:50.828Z,2.03
2022-08-21T09:15:33.923Z,2.03
2022-08-21T09:18:19.774Z,1.80
2022-08-21T09:21:04.017Z,1.95
2022-08-21T09:23:44.267Z,2.00
2022-08-21T09:26:17.351Z,1.65
2022-08-21T09:28:53.350Z,1.90
2022-08-21T09:31:27.332Z,2.13
2022-08-21T09:34:00.916Z,1.67
2022-08-21T09:36:42.325Z,1.52
2022-08-21T09:39:14.261Z,1.80
2022-08-21T09:41:42.835Z,1.95
2022-08-21T09:44:12.034Z,1.90
2022-08-21T09:46:40.001Z,1.92
2022-08-21T09:49:13.459Z,2.00
2022-08-21T09:51:55.078Z,2.15
2022-08-21T09:54:31.752Z,1.70
2022-08-21T09:57:20.397Z,1.88
2022-08-21T09:59:49.656Z,2.08
2022-08-21T10:02:28.965Z,1.88
2022-08-21T10:05:02.325Z,1.95
2022-08-21T10:07:33.849Z,2.15
2022-08-21T10:10:06.808Z,1.90
2022-08-21T10:12:51.829Z,1.85
2022-08-21T10:15:33.520Z,1.95
2022-08-21T10:18:14.897Z,2.00
2022-08-21T10:20:53.201Z,4.20
2022-08-21T10:23:42.286Z,2.10
2022-08-21T10:26:33.137Z,2.60
2022-08-21T10:29:14.611Z,2.75
2022-08-21T10:31:54.650Z,1.95
2022-08-21T10:34:41.751Z,2.33
2022-08-21T10:37:28.589Z,2.20
2022-08-21T10:40:17.480Z,2.38
2022-08-21T10:43:15.552Z,1.90
2022-08-21T10:46:04.738Z,1.67
2022-08-21T10:48:41.482Z,1.75
2022-08-21T10:51:28.897Z,1.77
2022-08-21T10:54:07.370Z,2.13
2022-08-21T10:56:42.281Z,2.92
2022-08-21T10:59:33.253Z,1.83
2022-08-21T11:02:15.249Z,1.65
2022-08-21T11:05:04.441Z,1.70
2022-08-21T11:07:38.148Z,1.70
2022-08-21T11:10:14.726Z,1.90
2022-08-21T11:12:51.674Z,1.70
2022-08-21T11:15:33.999Z,1.80
2022-08-21T11:18:21.259Z,1.50
2022-08-21T11:21:05.764Z,1.50
2022-08-21T11:23:46.106Z,1.40
2022-08-21T11:26:25.516Z,4.25
2022-08-21T11:29:03.375Z,1.42
2022-08-21T11:31:49.029Z,1.52
2022-08-21T11:34:37.342Z,1.60
2022-08-21T11:37:18.078Z,1.60
2022-08-21T11:40:04.489Z,1.65
2022-08-21T11:42:47.920Z,1.80
2022-08-21T11:45:28.377Z,1.48
2022-08-21T11:48:14.094Z,1.52
2022-08-21T11:50:45.816Z,1.55
2022-08-21T11:53:22.271Z,1.30
2022-08-21T11:55:58.893Z,1.40
2022-08-21T11:58:38.121Z,1.65
2022-08-21T12:01:11.438Z,1.65
2022-08-21T12:03:44.846Z,1.40
2022-08-21T12:06:24.466Z,1.25
2022-08-21T12:09:04.205Z,1.45
2022-08-21T12:11:32.814Z,1.25
2022-08-21T12:14:15.433Z,1.50
2022-08-21T12:16:47.088Z,1.20
2022-08-21T12:19:31.875Z,1.40
2022-08-21T12:22:11.587Z,1.60
2022-08-21T12:24:44.996Z,1.65
2022-08-21T12:27:28.059Z,1.48
2022-08-21T12:30:02.318Z,1.50
2022-08-21T12:32:43.723Z,1.50
2022-08-21T12:35:23.254Z,1.20
2022-08-21T12:38:03.231Z,1.60
2022-08-21T12:40:42.289Z,1.30
2022-08-21T12:43:20.581Z,1.90
2022-08-21T12:45:53.347Z,1.48
2022-08-21T12:48:28.935Z,1.60
2022-08-21T12:51:01.615Z,1.75
2022-08-21T12:53:36.632Z,1.70
2022-08-21T12:56:11.804Z,1.50
2022-08-21T12:58:46.804Z,1.60
2022-08-21T13:01:24.607Z,1.48
2022-08-21T13:04:04.144Z,1.40
2022-08-21T13:06:41.310Z,1.50
2022-08-21T13:09:14.768Z,1.65
2022-08-21T13:11:47.615Z,1.50
2022-08-21T13:14:27.123Z,1.80
2022-08-21T13:16:57.753Z,1.80
2022-08-21T13:19:30.570Z,1.98
2022-08-21T13:21:58.856Z,2.30
2022-08-21T13:24:42.313Z,1.40
2022-08-21T13:27:27.426Z,2.00
2022-08-21T13:30:11.726Z,1.90
2022-08-21T13:32:45.575Z,1.65
2022-08-21T13:35:20.926Z,2.42
2022-08-21T13:37:52.720Z,1.85
2022-08-21T13:40:27.317Z,1.80
2022-08-21T13:42:58.244Z,2.22
2022-08-21T13:45:31.935Z,1.75
2022-08-21T13:48:06.486Z,1.75
2022-08-21T13:50:39.382Z,1.80
2022-08-21T13:53:21.789Z,1.60
2022-08-21T13:55:50.733Z,1.83
2022-08-21T13:58:29.601Z,1.88
2022-08-21T14:01:01.246Z,2.13
2022-08-21T14:03:38.326Z,2.28
2022-08-21T14:06:16.515Z,1.90
2022-08-21T14:08:51.625Z,2.03
2022-08-21T14:11:20.351Z,2.60
2022-08-21T14:13:58.282Z,3.53
2022-08-21T14:16:29.898Z,2.10
2022-08-21T14:19:19.319Z,1.92
2022-08-21T14:21:47.869Z,1.80
2022-08-21T14:24:30.393Z,1.70
2022-08-21T14:27:06.685Z,2.30
2022-08-21T14:29:40.019Z,1.98
2022-08-21T14:32:21.949Z,2.10
2022-08-21T14:34:54.699Z,2.35
2022-08-21T14:37:23.287Z,2.33
2022-08-21T14:39:51.504Z,2.20
2022-08-21T14:42:19.640Z,2.20
2022-08-21T14:44:49.417Z,2.40
2022-08-21T14:47:17.644Z,2.20
2022-08-21T14:49:45.540Z,2.92
2022-08-21T14:52:13.367Z,2.00
2022-08-21T14:54:41.301Z,4.63
2022-08-21T14:57:13.026Z,2.58
2022-08-21T14:59:41.491Z,2.10
2022-08-21T15:02:11.648Z,2.28
2022-08-21T15:04:39.649Z,2.30
2022-08-21T15:07:07.526Z,2.00
2022-08-21T15:09:35.361Z,2.45
2022-08-21T15:12:06.065Z,1.88
2022-08-21T15:14:40.992Z,2.17
2022-08-21T15:17:13.020Z,1.90
2022-08-21T15:19:41.266Z,2.15
2022-08-21T15:22:18.700Z,2.17
2022-08-21T15:24:48.343Z,2.28
2022-08-21T15:27:20.229Z,1.95
2022-08-21T15:29:48.149Z,4.68
2022-08-21T15:32:25.449Z,2.35
2022-08-21T15:34:55.432Z,2.83
2022-08-21T15:37:25.806Z,5.90
2022-08-21T15:39:55.222Z,2.70
2022-08-21T15:42:24.498Z,2.90
2022-08-21T15:44:54.425Z,2.38
2022-08-21T15:47:30.360Z,2.63
2022-08-21T15:49:58.444Z,2.47
2022-08-21T15:52:26.392Z,2.78
2022-08-21T15:54:54.716Z,2.22
2022-08-21T15:57:25.843Z,2.55
2022-08-21T15:59:58.791Z,2.13
2022-08-21T16:02:32.375Z,2.10
2022-08-21T16:05:01.350Z,2.40
2022-08-21T16:07:29.161Z,2.47
2022-08-21T16:09:57.110Z,2.38
2022-08-21T16:12:28.944Z,2.58
2022-08-21T16:14:56.896Z,2.72
2022-08-21T16:17:32.520Z,2.60
2022-08-21T16:20:02.224Z,2.00
2022-08-21T16:22:42.172Z,1.80
2022-08-21T16:25:14.236Z,1.80
2022-08-21T16:27:46.076Z,2.08
2022-08-21T16:30:16.663Z,2.38
2022-08-21T16:32:47.899Z,2.30
2022-08-21T16:35:20.771Z,2.60
2022-08-21T16:37:52.969Z,2.08
2022-08-21T16:40:23.125Z,2.00
2022-08-21T16:42:51.406Z,2.08
2022-08-21T16:45:22.162Z,1.90
2022-08-21T16:47:51.494Z,2.25
2022-08-21T16:50:25.767Z,2.10
2022-08-21T16:52:54.489Z,5.25
2022-08-21T16:55:22.486Z,2.00
2022-08-21T16:57:50.381Z,2.10
2022-08-21T17:00:18.312Z,2.58
2022-08-21T17:02:53.433Z,2.08
2022-08-21T17:05:21.784Z,2.60
2022-08-21T17:07:49.774Z,2.03
2022-08-21T17:10:19.104Z,2.78
2022-08-21T17:12:55.798Z,4.18
2022-08-21T17:15:28.340Z,7.93
2022-08-21T17:17:57.619Z,2.67
2022-08-21T17:20:26.383Z,2.28
2022-08-21T17:22:55.339Z,4.28
2022-08-21T17:25:23.497Z,4.07
2022-08-21T17:27:52.222Z,2.40
2022-08-21T17:30:21.468Z,2.50
2022-08-21T17:32:53.818Z,5.32
2022-08-21T17:35:23.324Z,6.10
2022-08-21T17:37:53.306Z,3.90
2022-08-21T17:40:22.286Z,2.92
2022-08-21T17:42:50.407Z,3.22
2022-08-21T17:45:21.519Z,6.15
2022-08-21T17:47:49.388Z,4.18
2022-08-21T17:50:23.521Z,2.47
2022-08-21T17:52:52.498Z,4.78
2022-08-21T17:55:22.551Z,2.45
2022-08-21T17:57:53.329Z,3.22
2022-08-21T18:00:24.782Z,2.75
2022-08-21T18:03:02.930Z,2.92
2022-08-21T18:05:33.548Z,2.53
2022-08-21T18:08:01.585Z,3.10
2022-08-21T18:10:30.016Z,3.28
2022-08-21T18:12:58.776Z,6.50
2022-08-21T18:15:27.057Z,20.15
2022-08-21T18:17:55.185Z,9.38
2022-08-21T18:20:24.584Z,4.53
2022-08-21T18:22:53.796Z,3.20
2022-08-21T18:25:21.836Z,3.35
2022-08-21T18:27:51.061Z,3.15
2022-08-21T18:30:25.557Z,3.63
2022-08-21T18:32:56.095Z,3.60
2022-08-21T18:35:24.483Z,2.95
2022-08-21T18:37:53.727Z,2.85
2022-08-21T18:40:22.323Z,2.60
2022-08-21T18:42:55.784Z,3.72
2022-08-21T18:45:27.085Z,3.10
2022-08-21T18:47:58.296Z,3.10
2022-08-21T18:50:29.197Z,2.55
2022-08-21T18:52:58.526Z,3.20
2022-08-21T18:55:27.380Z,3.53
2022-08-21T18:57:57.331Z,3.53
2022-08-21T19:00:30.455Z,4.60
2022-08-21T19:02:59.399Z,5.07
2022-08-21T19:05:28.020Z,8.73
2022-08-21T19:07:58.018Z,18.63
2022-08-21T19:10:29.369Z,8.77
2022-08-21T19:13:00.596Z,4.72
2022-08-21T19:15:29.754Z,4.50
2022-08-21T19:17:59.535Z,4.70
2022-08-21T19:20:34.347Z,4.72
2022-08-21T19:23:07.426Z,5.75
2022-08-21T19:25:36.674Z,6.45
2022-08-21T19:28:11.653Z,5.80
2022-08-21T19:30:45.955Z,5.80
2022-08-21T19:33:35.969Z,5.05
2022-08-21T19:36:06.010Z,4.82
2022-08-21T19:38:35.721Z,4.25
2022-08-21T19:41:08.147Z,4.60
2022-08-21T19:43:43.504Z,4.38
2022-08-21T19:46:12.851Z,4.70
2022-08-21T19:48:40.767Z,3.95
2022-08-21T19:51:14.730Z,4.57
2022-08-21T19:53:44.112Z,5.32
2022-08-21T19:56:23.333Z,5.32
2022-08-21T19:58:52.352Z,4.68
2022-08-21T20:01:24.656Z,4.35
2022-08-21T20:03:55.460Z,4.25
2022-08-21T20:06:26.494Z,3.90
2022-08-21T20:08:56.503Z,4.03
2022-08-21T20:11:35.531Z,3.72
2022-08-21T20:14:03.669Z,3.60
2022-08-21T20:16:32.199Z,4.00
2022-08-21T20:19:03.427Z,4.20
2022-08-21T20:21:43.686Z,6.80
2022-08-21T20:24:15.517Z,14.85
2022-08-21T20:32:22.644Z,5.55
2022-08-21T20:34:51.935Z,4.55
2022-08-21T20:37:22.386Z,4.40
2022-08-21T20:40:11.462Z,5.20
2022-08-21T20:42:40.634Z,3.78
2022-08-21T20:45:10.520Z,4.18
2022-08-21T20:47:40.233Z,3.60
2022-08-21T20:50:14.487Z,3.80
2022-08-21T20:52:43.298Z,4.10
2022-08-21T20:55:18.142Z,3.67
2022-08-21T20:57:57.692Z,4.03
2022-08-21T21:00:33.725Z,3.50
2022-08-21T21:03:10.800Z,4.25
2022-08-21T21:05:49.024Z,4.55
2022-08-21T21:08:25.251Z,4.13
2022-08-21T21:10:59.387Z,4.25
2022-08-21T21:13:34.445Z,3.67
2022-08-21T21:16:12.814Z,3.72
2022-08-21T21:18:46.144Z,5.88
2022-08-21T21:21:25.180Z,4.32
2022-08-21T21:24:03.400Z,4.03
2022-08-21T21:26:39.602Z,4.80
2022-08-21T21:29:22.122Z,4.47
2022-08-21T21:31:52.919Z,4.70
2022-08-21T21:34:22.264Z,4.18
2022-08-21T21:37:03.825Z,4.27
2022-08-21T21:39:44.618Z,3.33
2022-08-21T21:42:30.560Z,3.60
2022-08-21T21:45:20.493Z,4.13
2022-08-21T21:48:21.128Z,4.22
2022-08-21T21:51:00.976Z,3.70
2022-08-21T21:53:51.616Z,3.78
2022-08-21T21:56:32.839Z,3.90
2022-08-21T21:59:25.867Z,3.72
2022-08-21T22:02:07.085Z,3.70
2022-08-21T22:04:51.112Z,3.47
2022-08-21T22:07:32.194Z,3.90
2022-08-21T22:10:19.837Z,3.70
2022-08-21T22:13:11.157Z,3.42
2022-08-21T22:15:41.602Z,3.57
2022-08-21T22:18:16.047Z,3.80
2022-08-21T22:20:53.854Z,3.73
2022-08-21T22:23:28.942Z,3.63
2022-08-21T22:26:05.256Z,4.43
2022-08-21T22:28:42.262Z,4.00
2022-08-21T22:31:22.235Z,4.00
2022-08-21T22:34:14.298Z,4.00
2022-08-21T22:36:55.478Z,4.77
2022-08-21T22:39:37.776Z,4.50
2022-08-21T22:42:13.492Z,4.23
2022-08-21T22:44:53.822Z,4.87
2022-08-21T22:47:27.136Z,5.00
2022-08-21T22:50:02.300Z,4.70
2022-08-21T22:52:36.874Z,5.07
2022-08-21T22:58:20.714Z,5.60
2022-08-21T23:00:55.334Z,5.36
2022-08-21T23:03:34.231Z,6.95
2022-08-21T23:06:22.229Z,6.15
2022-08-21T23:08:52.352Z,6.00
2022-08-21T23:11:25.308Z,6.23
2022-08-21T23:13:56.953Z,6.45
2022-08-21T23:16:47.530Z,6.57
2022-08-21T23:19:37.979Z,6.70
2022-08-21T23:22:29.197Z,6.38
2022-08-21T23:25:16.468Z,7.25
2022-08-21T23:28:04.122Z,6.90
2022-08-21T23:30:43.977Z,6.40
2022-08-21T23:33:47.357Z,6.15
2022-08-21T23:36:47.845Z,6.23
2022-08-21T23:39:32.625Z,6.28
2022-08-21T23:42:12.495Z,6.57
2022-08-21T23:44:54.823Z,6.63
2022-08-21T23:47:38.408Z,6.23
2022-08-21T23:50:14.659Z,6.37
2022-08-21T23:53:08.903Z,6.83
2022-08-21T23:55:55.796Z,6.23
2022-08-21T23:58:40.623Z,6.53
